sensor_id;sensor_type;location;lat;lon;timestamp;P1;durP1;ratioP1;P2;durP2;ratioP2
19235;SDS011;9752;54.270;12.470;2024-03-29T00:01:33;9.73;;;8.60;;
19235;SDS011;9752;54.270;12.470;2024-03-29T00:06:34;8.93;;;8.13;;
19235;SDS011;9752;54.270;12.470;2024-03-29T00:11:34;9.20;;;8.20;;
19235;SDS011;9752;54.270;12.470;2024-03-29T00:16:36;9.90;;;8.13;;
19235;SDS011;9752;54.270;12.470;2024-03-29T00:21:37;9.27;;;8.33;;
19235;SDS011;9752;54.270;12.470;2024-03-29T00:26:37;10.53;;;9.33;;
19235;SDS011;9752;54.270;12.470;2024-03-29T00:31:39;9.40;;;8.40;;
19235;SDS011;9752;54.270;12.470;2024-03-29T00:36:40;8.70;;;7.83;;
19235;SDS011;9752;54.270;12.470;2024-03-29T00:41:40;11.57;;;8.07;;
19235;SDS011;9752;54.270;12.470;2024-03-29T00:46:42;13.37;;;8.67;;
19235;SDS011;9752;54.270;12.470;2024-03-29T00:51:43;8.77;;;7.23;;
19235;SDS011;9752;54.270;12.470;2024-03-29T00:56:44;10.27;;;8.73;;
19235;SDS011;9752;54.270;12.470;2024-03-29T01:01:46;8.90;;;7.80;;
19235;SDS011;9752;54.270;12.470;2024-03-29T01:06:47;8.57;;;7.67;;
19235;SDS011;9752;54.270;12.470;2024-03-29T01:11:47;9.30;;;8.37;;
19235;SDS011;9752;54.270;12.470;2024-03-29T01:16:51;9.50;;;8.50;;
19235;SDS011;9752;54.270;12.470;2024-03-29T01:21:52;11.43;;;9.60;;
19235;SDS011;9752;54.270;12.470;2024-03-29T01:26:53;10.43;;;8.43;;
19235;SDS011;9752;54.270;12.470;2024-03-29T01:31:55;8.80;;;7.90;;
19235;SDS011;9752;54.270;12.470;2024-03-29T01:36:56;9.80;;;7.63;;
19235;SDS011;9752;54.270;12.470;2024-03-29T01:41:56;10.13;;;9.07;;
19235;SDS011;9752;54.270;12.470;2024-03-29T01:46:58;10.27;;;6.80;;
19235;SDS011;9752;54.270;12.470;2024-03-29T01:52:00;9.43;;;7.87;;
19235;SDS011;9752;54.270;12.470;2024-03-29T01:57:04;7.97;;;7.10;;
19235;SDS011;9752;54.270;12.470;2024-03-29T02:02:07;6.87;;;6.27;;
19235;SDS011;9752;54.270;12.470;2024-03-29T02:07:10;9.13;;;7.30;;
19235;SDS011;9752;54.270;12.470;2024-03-29T02:12:11;7.17;;;6.57;;
19235;SDS011;9752;54.270;12.470;2024-03-29T02:17:14;7.70;;;7.00;;
19235;SDS011;9752;54.270;12.470;2024-03-29T02:22:16;9.90;;;6.60;;
19235;SDS011;9752;54.270;12.470;2024-03-29T02:27:21;8.63;;;7.03;;
19235;SDS011;9752;54.270;12.470;2024-03-29T02:32:23;9.20;;;7.13;;
19235;SDS011;9752;54.270;12.470;2024-03-29T02:37:24;7.63;;;6.87;;
19235;SDS011;9752;54.270;12.470;2024-03-29T02:42:27;11.10;;;7.17;;
19235;SDS011;9752;54.270;12.470;2024-03-29T02:47:29;17.10;;;7.63;;
19235;SDS011;9752;54.270;12.470;2024-03-29T02:52:30;6.97;;;6.33;;
19235;SDS011;9752;54.270;12.470;2024-03-29T02:57:33;7.23;;;6.57;;
19235;SDS011;9752;54.270;12.470;2024-03-29T03:02:36;9.20;;;6.63;;
19235;SDS011;9752;54.270;12.470;2024-03-29T03:07:39;7.10;;;6.40;;
19235;SDS011;9752;54.270;12.470;2024-03-29T03:12:59;6.70;;;6.10;;
19235;SDS011;9752;54.270;12.470;2024-03-29T03:18:00;6.17;;;5.23;;
19235;SDS011;9752;54.270;12.470;2024-03-29T03:23:02;6.70;;;5.57;;
19235;SDS011;9752;54.270;12.470;2024-03-29T03:28:05;6.57;;;5.90;;
19235;SDS011;9752;54.270;12.470;2024-03-29T03:33:07;6.20;;;5.27;;
19235;SDS011;9752;54.270;12.470;2024-03-29T03:38:08;7.60;;;4.90;;
19235;SDS011;9752;54.270;12.470;2024-03-29T03:43:12;6.37;;;5.17;;
19235;SDS011;9752;54.270;12.470;2024-03-29T03:48:13;5.27;;;4.80;;
19235;SDS011;9752;54.270;12.470;2024-03-29T03:53:15;5.10;;;4.60;;
19235;SDS011;9752;54.270;12.470;2024-03-29T03:58:18;7.17;;;4.93;;
19235;SDS011;9752;54.270;12.470;2024-03-29T04:03:19;7.40;;;4.67;;
19235;SDS011;9752;54.270;12.470;2024-03-29T04:08:21;6.23;;;4.70;;
19235;SDS011;9752;54.270;12.470;2024-03-29T04:13:26;5.43;;;4.93;;
19235;SDS011;9752;54.270;12.470;2024-03-29T04:18:27;7.13;;;5.17;;
19235;SDS011;9752;54.270;12.470;2024-03-29T04:23:29;5.37;;;4.83;;
19235;SDS011;9752;54.270;12.470;2024-03-29T04:28:32;8.77;;;4.40;;
19235;SDS011;9752;54.270;12.470;2024-03-29T04:33:34;7.90;;;4.80;;
19235;SDS011;9752;54.270;12.470;2024-03-29T04:38:35;5.03;;;4.60;;
19235;SDS011;9752;54.270;12.470;2024-03-29T04:43:39;4.70;;;4.20;;
19235;SDS011;9752;54.270;12.470;2024-03-29T04:48:42;4.73;;;4.43;;
19235;SDS011;9752;54.270;12.470;2024-03-29T04:53:45;4.73;;;4.13;;
19235;SDS011;9752;54.270;12.470;2024-03-29T04:58:48;4.93;;;3.90;;
19235;SDS011;9752;54.270;12.470;2024-03-29T05:03:50;5.53;;;3.77;;
19235;SDS011;9752;54.270;12.470;2024-03-29T05:08:52;4.00;;;3.67;;
19235;SDS011;9752;54.270;12.470;2024-03-29T05:13:55;3.70;;;3.40;;
19235;SDS011;9752;54.270;12.470;2024-03-29T05:19:00;4.20;;;3.80;;
19235;SDS011;9752;54.270;12.470;2024-03-29T05:24:02;9.80;;;3.60;;
19235;SDS011;9752;54.270;12.470;2024-03-29T05:29:05;5.67;;;4.10;;
19235;SDS011;9752;54.270;12.470;2024-03-29T05:34:07;3.57;;;3.27;;
19235;SDS011;9752;54.270;12.470;2024-03-29T05:39:09;3.97;;;3.67;;
19235;SDS011;9752;54.270;12.470;2024-03-29T05:44:12;8.17;;;3.67;;
19235;SDS011;9752;54.270;12.470;2024-03-29T05:49:14;4.43;;;3.30;;
19235;SDS011;9752;54.270;12.470;2024-03-29T05:54:16;5.30;;;3.57;;
19235;SDS011;9752;54.270;12.470;2024-03-29T05:59:19;3.93;;;3.60;;
19235;SDS011;9752;54.270;12.470;2024-03-29T06:04:21;5.83;;;3.50;;
19235;SDS011;9752;54.270;12.470;2024-03-29T06:09:29;3.40;;;3.20;;
19235;SDS011;9752;54.270;12.470;2024-03-29T06:14:34;7.47;;;4.50;;
19235;SDS011;9752;54.270;12.470;2024-03-29T06:19:54;4.10;;;3.80;;
19235;SDS011;9752;54.270;12.470;2024-03-29T06:24:57;3.67;;;3.47;;
19235;SDS011;9752;54.270;12.470;2024-03-29T06:30:06;8.00;;;4.33;;
19235;SDS011;9752;54.270;12.470;2024-03-29T06:35:09;4.93;;;3.67;;
19235;SDS011;9752;54.270;12.470;2024-03-29T06:40:11;7.87;;;3.60;;
19235;SDS011;9752;54.270;12.470;2024-03-29T06:45:14;4.10;;;3.70;;
19235;SDS011;9752;54.270;12.470;2024-03-29T06:50:15;6.93;;;3.80;;
19235;SDS011;9752;54.270;12.470;2024-03-29T06:55:17;5.13;;;3.87;;
19235;SDS011;9752;54.270;12.470;2024-03-29T07:00:21;3.70;;;3.40;;
19235;SDS011;9752;54.270;12.470;2024-03-29T07:05:22;4.77;;;4.07;;
19235;SDS011;9752;54.270;12.470;2024-03-29T07:10:24;5.50;;;4.03;;
19235;SDS011;9752;54.270;12.470;2024-03-29T07:15:27;4.43;;;3.50;;
19235;SDS011;9752;54.270;12.470;2024-03-29T07:20:29;3.80;;;3.50;;
19235;SDS011;9752;54.270;12.470;2024-03-29T07:25:30;4.13;;;3.70;;
19235;SDS011;9752;54.270;12.470;2024-03-29T07:30:35;3.80;;;3.50;;
19235;SDS011;9752;54.270;12.470;2024-03-29T07:35:38;4.30;;;3.90;;
19235;SDS011;9752;54.270;12.470;2024-03-29T07:40:41;3.60;;;3.40;;
19235;SDS011;9752;54.270;12.470;2024-03-29T07:45:44;6.03;;;4.07;;
19235;SDS011;9752;54.270;12.470;2024-03-29T07:50:46;4.87;;;4.27;;
19235;SDS011;9752;54.270;12.470;2024-03-29T07:55:49;5.27;;;4.73;;
19235;SDS011;9752;54.270;12.470;2024-03-29T08:00:52;6.03;;;5.10;;
19235;SDS011;9752;54.270;12.470;2024-03-29T08:05:56;5.27;;;4.73;;
19235;SDS011;9752;54.270;12.470;2024-03-29T08:10:58;6.03;;;5.47;;
19235;SDS011;9752;54.270;12.470;2024-03-29T08:16:01;7.17;;;5.30;;
19235;SDS011;9752;54.270;12.470;2024-03-29T08:21:03;8.53;;;5.80;;
19235;SDS011;9752;54.270;12.470;2024-03-29T08:26:11;5.60;;;5.10;;
19235;SDS011;9752;54.270;12.470;2024-03-29T08:31:14;6.30;;;5.73;;
19235;SDS011;9752;54.270;12.470;2024-03-29T08:36:16;6.40;;;5.87;;
19235;SDS011;9752;54.270;12.470;2024-03-29T08:41:18;6.17;;;5.67;;
19235;SDS011;9752;54.270;12.470;2024-03-29T08:46:21;6.40;;;5.90;;
19235;SDS011;9752;54.270;12.470;2024-03-29T08:51:23;8.40;;;6.00;;
19235;SDS011;9752;54.270;12.470;2024-03-29T08:56:25;7.13;;;6.50;;
19235;SDS011;9752;54.270;12.470;2024-03-29T09:01:28;7.73;;;6.30;;
19235;SDS011;9752;54.270;12.470;2024-03-29T09:06:29;5.97;;;5.47;;
19235;SDS011;9752;54.270;12.470;2024-03-29T09:11:31;8.17;;;5.83;;
19235;SDS011;9752;54.270;12.470;2024-03-29T09:16:34;5.80;;;5.33;;
19235;SDS011;9752;54.270;12.470;2024-03-29T09:21:35;7.73;;;5.13;;
19235;SDS011;9752;54.270;12.470;2024-03-29T09:26:37;8.57;;;6.50;;
19235;SDS011;9752;54.270;12.470;2024-03-29T09:31:41;6.30;;;5.90;;
19235;SDS011;9752;54.270;12.470;2024-03-29T09:36:43;6.43;;;6.10;;
19235;SDS011;9752;54.270;12.470;2024-03-29T09:41:44;6.87;;;5.93;;
19235;SDS011;9752;54.270;12.470;2024-03-29T09:46:48;6.73;;;5.77;;
19235;SDS011;9752;54.270;12.470;2024-03-29T09:51:51;9.57;;;5.40;;
19235;SDS011;9752;54.270;12.470;2024-03-29T09:56:53;6.30;;;5.53;;
19235;SDS011;9752;54.270;12.470;2024-03-29T10:01:57;7.77;;;4.87;;
19235;SDS011;9752;54.270;12.470;2024-03-29T10:07:01;6.47;;;5.87;;
19235;SDS011;9752;54.270;12.470;2024-03-29T10:12:04;6.27;;;5.97;;
19235;SDS011;9752;54.270;12.470;2024-03-29T10:17:07;7.97;;;7.30;;
19235;SDS011;9752;54.270;12.470;2024-03-29T10:22:09;5.87;;;5.37;;
19235;SDS011;9752;54.270;12.470;2024-03-29T10:27:10;6.83;;;4.97;;
19235;SDS011;9752;54.270;12.470;2024-03-29T10:32:13;5.13;;;4.83;;
19235;SDS011;9752;54.270;12.470;2024-03-29T10:37:15;4.73;;;4.33;;
19235;SDS011;9752;54.270;12.470;2024-03-29T10:42:19;5.13;;;4.83;;
19235;SDS011;9752;54.270;12.470;2024-03-29T10:47:22;5.47;;;4.97;;
19235;SDS011;9752;54.270;12.470;2024-03-29T10:52:26;4.93;;;4.53;;
19235;SDS011;9752;54.270;12.470;2024-03-29T10:57:28;4.33;;;4.13;;
19235;SDS011;9752;54.270;12.470;2024-03-29T11:02:35;4.83;;;4.33;;
19235;SDS011;9752;54.270;12.470;2024-03-29T11:07:42;4.87;;;4.47;;
19235;SDS011;9752;54.270;12.470;2024-03-29T11:12:47;5.70;;;5.40;;
19235;SDS011;9752;54.270;12.470;2024-03-29T11:18:01;5.83;;;5.33;;
19235;SDS011;9752;54.270;12.470;2024-03-29T11:23:05;5.93;;;5.53;;
19235;SDS011;9752;54.270;12.470;2024-03-29T11:28:11;5.60;;;5.30;;
19235;SDS011;9752;54.270;12.470;2024-03-29T11:33:26;5.70;;;5.30;;
19235;SDS011;9752;54.270;12.470;2024-03-29T11:38:34;6.00;;;5.60;;
19235;SDS011;9752;54.270;12.470;2024-03-29T11:43:44;5.60;;;5.30;;
19235;SDS011;9752;54.270;12.470;2024-03-29T11:48:47;6.27;;;5.70;;
19235;SDS011;9752;54.270;12.470;2024-03-29T11:53:50;5.60;;;5.03;;
19235;SDS011;9752;54.270;12.470;2024-03-29T11:58:52;5.53;;;5.13;;
19235;SDS011;9752;54.270;12.470;2024-03-29T12:04:01;6.07;;;5.67;;
19235;SDS011;9752;54.270;12.470;2024-03-29T12:09:02;5.60;;;5.20;;
19235;SDS011;9752;54.270;12.470;2024-03-29T12:14:11;5.80;;;5.40;;
19235;SDS011;9752;54.270;12.470;2024-03-29T12:19:22;5.10;;;4.80;;
19235;SDS011;9752;54.270;12.470;2024-03-29T12:24:24;5.37;;;4.93;;
19235;SDS011;9752;54.270;12.470;2024-03-29T12:29:26;5.53;;;5.00;;
19235;SDS011;9752;54.270;12.470;2024-03-29T12:34:29;8.23;;;7.60;;
19235;SDS011;9752;54.270;12.470;2024-03-29T12:39:32;5.20;;;4.80;;
19235;SDS011;9752;54.270;12.470;2024-03-29T12:44:35;4.33;;;4.10;;
19235;SDS011;9752;54.270;12.470;2024-03-29T12:49:41;4.50;;;4.20;;
19235;SDS011;9752;54.270;12.470;2024-03-29T12:54:43;5.73;;;4.10;;
19235;SDS011;9752;54.270;12.470;2024-03-29T12:59:44;4.20;;;4.00;;
19235;SDS011;9752;54.270;12.470;2024-03-29T13:04:48;4.77;;;3.90;;
19235;SDS011;9752;54.270;12.470;2024-03-29T13:09:50;4.30;;;4.00;;
19235;SDS011;9752;54.270;12.470;2024-03-29T13:14:53;5.50;;;5.00;;
19235;SDS011;9752;54.270;12.470;2024-03-29T13:19:56;4.10;;;3.80;;
19235;SDS011;9752;54.270;12.470;2024-03-29T13:24:58;4.50;;;4.10;;
19235;SDS011;9752;54.270;12.470;2024-03-29T13:29:59;4.90;;;4.40;;
19235;SDS011;9752;54.270;12.470;2024-03-29T13:35:02;5.30;;;4.90;;
19235;SDS011;9752;54.270;12.470;2024-03-29T13:40:06;5.23;;;4.70;;
19235;SDS011;9752;54.270;12.470;2024-03-29T13:45:09;5.10;;;4.70;;
19235;SDS011;9752;54.270;12.470;2024-03-29T13:50:12;7.23;;;6.37;;
19235;SDS011;9752;54.270;12.470;2024-03-29T13:55:15;5.40;;;5.10;;
19235;SDS011;9752;54.270;12.470;2024-03-29T14:00:17;4.90;;;4.33;;
19235;SDS011;9752;54.270;12.470;2024-03-29T14:05:21;5.43;;;5.03;;
19235;SDS011;9752;54.270;12.470;2024-03-29T14:10:22;5.83;;;5.33;;
19235;SDS011;9752;54.270;12.470;2024-03-29T14:15:24;4.80;;;4.50;;
19235;SDS011;9752;54.270;12.470;2024-03-29T14:20:27;5.47;;;4.97;;
19235;SDS011;9752;54.270;12.470;2024-03-29T14:25:29;4.80;;;4.60;;
19235;SDS011;9752;54.270;12.470;2024-03-29T14:30:31;4.77;;;4.50;;
19235;SDS011;9752;54.270;12.470;2024-03-29T14:35:34;5.37;;;4.97;;
19235;SDS011;9752;54.270;12.470;2024-03-29T14:40:36;4.60;;;4.40;;
19235;SDS011;9752;54.270;12.470;2024-03-29T14:45:39;4.97;;;4.67;;
19235;SDS011;9752;54.270;12.470;2024-03-29T14:50:42;5.00;;;4.60;;
19235;SDS011;9752;54.270;12.470;2024-03-29T14:55:44;5.23;;;4.93;;
19235;SDS011;9752;54.270;12.470;2024-03-29T15:00:45;5.03;;;4.73;;
19235;SDS011;9752;54.270;12.470;2024-03-29T15:05:49;5.50;;;5.20;;
19235;SDS011;9752;54.270;12.470;2024-03-29T15:10:55;5.40;;;5.00;;
19235;SDS011;9752;54.270;12.470;2024-03-29T15:15:58;5.43;;;5.23;;
19235;SDS011;9752;54.270;12.470;2024-03-29T15:21:02;7.10;;;6.80;;
19235;SDS011;9752;54.270;12.470;2024-03-29T15:26:04;8.00;;;7.70;;
19235;SDS011;9752;54.270;12.470;2024-03-29T15:31:09;7.47;;;7.07;;
19235;SDS011;9752;54.270;12.470;2024-03-29T15:36:13;6.20;;;5.70;;
19235;SDS011;9752;54.270;12.470;2024-03-29T15:41:15;6.37;;;5.97;;
19235;SDS011;9752;54.270;12.470;2024-03-29T15:46:16;8.53;;;7.83;;
19235;SDS011;9752;54.270;12.470;2024-03-29T15:51:19;8.37;;;7.57;;
19235;SDS011;9752;54.270;12.470;2024-03-29T15:56:21;6.57;;;5.97;;
19235;SDS011;9752;54.270;12.470;2024-03-29T16:01:23;5.60;;;5.20;;
19235;SDS011;9752;54.270;12.470;2024-03-29T16:06:26;4.53;;;4.23;;
19235;SDS011;9752;54.270;12.470;2024-03-29T16:11:30;4.27;;;3.97;;
19235;SDS011;9752;54.270;12.470;2024-03-29T16:16:35;6.43;;;3.90;;
19235;SDS011;9752;54.270;12.470;2024-03-29T16:21:38;4.80;;;3.77;;
19235;SDS011;9752;54.270;12.470;2024-03-29T16:26:40;5.03;;;3.63;;
19235;SDS011;9752;54.270;12.470;2024-03-29T16:31:41;6.10;;;5.57;;
19235;SDS011;9752;54.270;12.470;2024-03-29T16:36:44;5.67;;;4.90;;
19235;SDS011;9752;54.270;12.470;2024-03-29T16:41:46;5.57;;;4.70;;
19235;SDS011;9752;54.270;12.470;2024-03-29T16:46:50;35.80;;;27.87;;
19235;SDS011;9752;54.270;12.470;2024-03-29T16:51:52;19.63;;;17.60;;
19235;SDS011;9752;54.270;12.470;2024-03-29T16:56:54;10.23;;;9.33;;
19235;SDS011;9752;54.270;12.470;2024-03-29T17:01:56;8.37;;;7.67;;
19235;SDS011;9752;54.270;12.470;2024-03-29T17:06:58;7.70;;;7.00;;
19235;SDS011;9752;54.270;12.470;2024-03-29T17:12:00;8.13;;;7.37;;
19235;SDS011;9752;54.270;12.470;2024-03-29T17:17:02;6.60;;;5.93;;
19235;SDS011;9752;54.270;12.470;2024-03-29T17:22:05;6.77;;;5.47;;
19235;SDS011;9752;54.270;12.470;2024-03-29T17:27:07;6.47;;;5.73;;
19235;SDS011;9752;54.270;12.470;2024-03-29T17:32:09;8.80;;;8.00;;
19235;SDS011;9752;54.270;12.470;2024-03-29T17:37:12;8.87;;;8.00;;
19235;SDS011;9752;54.270;12.470;2024-03-29T17:42:15;6.83;;;6.23;;
19235;SDS011;9752;54.270;12.470;2024-03-29T17:47:17;7.40;;;6.03;;
19235;SDS011;9752;54.270;12.470;2024-03-29T17:52:20;6.20;;;5.60;;
19235;SDS011;9752;54.270;12.470;2024-03-29T17:57:21;6.50;;;5.90;;
19235;SDS011;9752;54.270;12.470;2024-03-29T18:02:23;6.20;;;5.60;;
19235;SDS011;9752;54.270;12.470;2024-03-29T18:07:26;5.80;;;5.20;;
19235;SDS011;9752;54.270;12.470;2024-03-29T18:12:28;6.23;;;5.57;;
19235;SDS011;9752;54.270;12.470;2024-03-29T18:17:30;8.47;;;6.87;;
19235;SDS011;9752;54.270;12.470;2024-03-29T18:22:33;6.23;;;5.73;;
19235;SDS011;9752;54.270;12.470;2024-03-29T18:27:34;6.97;;;6.00;;
19235;SDS011;9752;54.270;12.470;2024-03-29T18:32:36;6.43;;;5.93;;
19235;SDS011;9752;54.270;12.470;2024-03-29T18:37:39;7.03;;;6.43;;
19235;SDS011;9752;54.270;12.470;2024-03-29T18:42:40;7.03;;;6.10;;
19235;SDS011;9752;54.270;12.470;2024-03-29T18:47:42;10.13;;;7.93;;
19235;SDS011;9752;54.270;12.470;2024-03-29T18:52:45;9.50;;;7.50;;
19235;SDS011;9752;54.270;12.470;2024-03-29T18:57:48;9.57;;;8.40;;
19235;SDS011;9752;54.270;12.470;2024-03-29T19:02:50;8.83;;;8.03;;
19235;SDS011;9752;54.270;12.470;2024-03-29T19:07:53;12.83;;;8.73;;
19235;SDS011;9752;54.270;12.470;2024-03-29T19:12:54;15.10;;;10.70;;
19235;SDS011;9752;54.270;12.470;2024-03-29T19:17:56;14.83;;;12.97;;
19235;SDS011;9752;54.270;12.470;2024-03-29T19:22:59;14.93;;;13.13;;
19235;SDS011;9752;54.270;12.470;2024-03-29T19:28:01;17.30;;;14.67;;
19235;SDS011;9752;54.270;12.470;2024-03-29T19:33:03;19.53;;;16.07;;
19235;SDS011;9752;54.270;12.470;2024-03-29T19:38:06;17.00;;;15.30;;
19235;SDS011;9752;54.270;12.470;2024-03-29T19:43:07;22.43;;;17.83;;
19235;SDS011;9752;54.270;12.470;2024-03-29T19:48:09;22.87;;;19.27;;
19235;SDS011;9752;54.270;12.470;2024-03-29T19:53:12;22.40;;;20.03;;
19235;SDS011;9752;54.270;12.470;2024-03-29T19:58:14;27.43;;;23.03;;
19235;SDS011;9752;54.270;12.470;2024-03-29T20:03:16;21.13;;;18.87;;
19235;SDS011;9752;54.270;12.470;2024-03-29T20:08:19;16.93;;;15.13;;
19235;SDS011;9752;54.270;12.470;2024-03-29T20:13:20;17.77;;;13.77;;
19235;SDS011;9752;54.270;12.470;2024-03-29T20:18:22;12.90;;;11.03;;
19235;SDS011;9752;54.270;12.470;2024-03-29T20:23:25;10.27;;;9.33;;
19235;SDS011;9752;54.270;12.470;2024-03-29T20:28:28;10.57;;;9.47;;
19235;SDS011;9752;54.270;12.470;2024-03-29T20:33:29;13.33;;;11.17;;
19235;SDS011;9752;54.270;12.470;2024-03-29T20:38:33;16.40;;;12.10;;
19235;SDS011;9752;54.270;12.470;2024-03-29T20:43:34;15.53;;;13.90;;
19235;SDS011;9752;54.270;12.470;2024-03-29T20:48:36;15.00;;;12.27;;
19235;SDS011;9752;54.270;12.470;2024-03-29T20:53:39;11.60;;;10.40;;
19235;SDS011;9752;54.270;12.470;2024-03-29T20:58:40;10.03;;;9.03;;
19235;SDS011;9752;54.270;12.470;2024-03-29T21:03:42;12.70;;;11.40;;
19235;SDS011;9752;54.270;12.470;2024-03-29T21:09:03;9.53;;;8.10;;
19235;SDS011;9752;54.270;12.470;2024-03-29T21:14:04;11.33;;;9.47;;
19235;SDS011;9752;54.270;12.470;2024-03-29T21:19:06;10.93;;;9.67;;
19235;SDS011;9752;54.270;12.470;2024-03-29T21:24:09;10.63;;;9.27;;
19235;SDS011;9752;54.270;12.470;2024-03-29T21:29:11;10.97;;;9.77;;
19235;SDS011;9752;54.270;12.470;2024-03-29T21:34:12;12.03;;;10.63;;
19235;SDS011;9752;54.270;12.470;2024-03-29T21:39:15;12.57;;;10.23;;
19235;SDS011;9752;54.270;12.470;2024-03-29T21:44:17;13.23;;;11.83;;
19235;SDS011;9752;54.270;12.470;2024-03-29T21:49:19;15.43;;;13.23;;
19235;SDS011;9752;54.270;12.470;2024-03-29T21:54:22;12.80;;;11.50;;
19235;SDS011;9752;54.270;12.470;2024-03-29T21:59:24;13.87;;;11.83;;
19235;SDS011;9752;54.270;12.470;2024-03-29T22:04:26;16.20;;;13.30;;
19235;SDS011;9752;54.270;12.470;2024-03-29T22:09:28;13.37;;;11.97;;
19235;SDS011;9752;54.270;12.470;2024-03-29T22:14:30;13.83;;;12.53;;
19235;SDS011;9752;54.270;12.470;2024-03-29T22:19:32;12.73;;;11.10;;
19235;SDS011;9752;54.270;12.470;2024-03-29T22:24:35;16.13;;;14.50;;
19235;SDS011;9752;54.270;12.470;2024-03-29T22:29:36;13.97;;;12.63;;
19235;SDS011;9752;54.270;12.470;2024-03-29T22:34:39;13.03;;;11.70;;
19235;SDS011;9752;54.270;12.470;2024-03-29T22:39:42;12.57;;;11.27;;
19235;SDS011;9752;54.270;12.470;2024-03-29T22:44:44;10.27;;;9.37;;
19235;SDS011;9752;54.270;12.470;2024-03-29T22:49:45;12.53;;;11.30;;
19235;SDS011;9752;54.270;12.470;2024-03-29T22:54:48;17.63;;;12.90;;
19235;SDS011;9752;54.270;12.470;2024-03-29T22:59:50;13.33;;;11.93;;
19235;SDS011;9752;54.270;12.470;2024-03-29T23:04:52;10.00;;;9.00;;
19235;SDS011;9752;54.270;12.470;2024-03-29T23:09:55;11.33;;;9.63;;
19235;SDS011;9752;54.270;12.470;2024-03-29T23:14:56;12.67;;;11.23;;
19235;SDS011;9752;54.270;12.470;2024-03-29T23:19:58;12.93;;;11.10;;
19235;SDS011;9752;54.270;12.470;2024-03-29T23:25:01;14.97;;;12.40;;
19235;SDS011;9752;54.270;12.470;2024-03-29T23:30:04;13.33;;;12.03;;
19235;SDS011;9752;54.270;12.470;2024-03-29T23:35:07;11.17;;;10.00;;
19235;SDS011;9752;54.270;12.470;2024-03-29T23:40:10;13.77;;;12.43;;
19235;SDS011;9752;54.270;12.470;2024-03-29T23:45:12;11.97;;;10.00;;
19235;SDS011;9752;54.270;12.470;2024-03-29T23:50:13;12.43;;;11.27;;
19235;SDS011;9752;54.270;12.470;2024-03-29T23:55:17;14.20;;;12.70;;
